Time,TemperatureF,DewpointF,PressureIn,WindDirection,WindDirectionDegrees,WindSpeedMPH,WindSpeedGustMPH,Humidity,HourlyPrecipIn,Conditions,Clouds,dailyrainin,SoftwareType,DateUTC
2013-08-11 00:04:00,72.3,44.5,30.03,East,100,0.0,0.0,37,0.00,,,-99.99,Weather View 32 v60,2013-08-11 04:04:00,
2013-08-11 00:09:00,72.3,44.5,30.03,East,100,0.0,0.0,37,0.00,,,-99.99,Weather View 32 v60,2013-08-11 04:09:00,
2013-08-11 00:14:00,72.3,44.5,30.03,East,100,0.0,0.0,37,0.00,,,-99.99,Weather View 32 v60,2013-08-11 04:14:00,
2013-08-11 00:19:00,72.1,45.1,30.03,East,100,0.0,0.0,38,0.00,,,-99.99,Weather View 32 v60,2013-08-11 04:19:00,
2013-08-11 00:24:00,72.1,45.1,30.03,East,100,0.0,0.0,38,0.00,,,-99.99,Weather View 32 v60,2013-08-11 04:24:00,
2013-08-11 00:34:00,72.3,45.2,30.03,East,100,0.0,0.0,38,0.00,,,-99.99,Weather View 32 v60,2013-08-11 04:34:00,
2013-08-11 00:39:00,72.3,45.2,30.03,East,100,0.0,0.0,38,0.00,,,-99.99,Weather View 32 v60,2013-08-11 04:39:00,
2013-08-11 00:44:00,72.1,45.7,30.03,East,100,0.0,0.0,39,0.00,,,-99.99,Weather View 32 v60,2013-08-11 04:44:00,
2013-08-11 00:49:00,72.1,45.7,30.03,East,100,0.0,0.0,39,0.00,,,-99.99,Weather View 32 v60,2013-08-11 04:49:00,
2013-08-11 00:54:00,72.1,45.7,30.03,East,100,0.0,0.0,39,0.00,,,-99.99,Weather View 32 v60,2013-08-11 04:54:00,
2013-08-11 01:04:00,72.1,45.7,30.03,East,100,0.0,0.0,39,0.00,,,-99.99,Weather View 32 v60,2013-08-11 05:04:00,
2013-08-11 01:09:00,72.1,46.4,30.03,East,100,0.0,0.0,40,0.00,,,-99.99,Weather View 32 v60,2013-08-11 05:09:00,
2013-08-11 01:19:00,72.1,46.4,30.03,East,100,0.0,0.0,40,0.00,,,-99.99,Weather View 32 v60,2013-08-11 05:19:00,
2013-08-11 01:34:00,72.0,46.3,30.03,East,100,0.0,0.0,40,0.00,,,-99.99,Weather View 32 v60,2013-08-11 05:34:00,
2013-08-11 01:44:00,72.0,46.9,30.03,East,100,0.0,0.0,41,0.00,,,-99.99,Weather View 32 v60,2013-08-11 05:44:00,
2013-08-11 01:54:00,72.0,46.9,30.03,East,100,0.0,0.0,41,0.00,,,-99.99,Weather View 32 v60,2013-08-11 05:54:00,
2013-08-11 01:59:00,72.0,46.9,30.03,East,100,0.0,0.0,41,0.00,,,-99.99,Weather View 32 v60,2013-08-11 05:59:00,
2013-08-11 02:09:00,72.0,47.6,30.03,East,100,0.0,0.0,42,0.00,,,-99.99,Weather View 32 v60,2013-08-11 06:09:00,
2013-08-11 02:14:00,72.0,47.6,30.03,East,100,0.0,0.0,42,0.00,,,-99.99,Weather View 32 v60,2013-08-11 06:14:00,
2013-08-11 02:19:00,72.0,47.6,30.03,East,100,0.0,0.0,42,0.00,,,-99.99,Weather View 32 v60,2013-08-11 06:19:00,
2013-08-11 02:29:00,71.8,47.4,30.00,East,100,0.0,0.0,42,0.00,,,-99.99,Weather View 32 v60,2013-08-11 06:29:00,
2013-08-11 02:39:00,71.8,47.4,30.00,East,100,0.0,0.0,42,0.00,,,-99.99,Weather View 32 v60,2013-08-11 06:39:00,
2013-08-11 02:49:00,71.8,47.4,30.00,East,100,0.0,0.0,42,0.00,,,-99.99,Weather View 32 v60,2013-08-11 06:49:00,
2013-08-11 02:59:00,71.6,47.2,30.00,East,100,0.0,0.0,42,0.00,,,-99.99,Weather View 32 v60,2013-08-11 06:59:00,
2013-08-11 03:09:00,71.4,47.1,30.00,East,100,0.0,0.0,42,0.00,,,-99.99,Weather View 32 v60,2013-08-11 07:09:00,
2013-08-11 03:14:00,71.4,47.7,30.00,East,100,0.0,0.0,43,0.00,,,-99.99,Weather View 32 v60,2013-08-11 07:14:00,
2013-08-11 03:24:00,71.2,47.5,30.00,East,100,0.0,0.0,43,0.00,,,-99.99,Weather View 32 v60,2013-08-11 07:24:00,
2013-08-11 03:34:00,71.2,47.5,30.00,East,100,0.0,0.0,43,0.00,,,-99.99,Weather View 32 v60,2013-08-11 07:34:00,
2013-08-11 03:39:00,71.1,47.4,30.00,East,100,0.0,0.0,43,0.00,,,-99.99,Weather View 32 v60,2013-08-11 07:39:00,
2013-08-11 03:49:00,71.1,47.4,30.00,East,100,0.0,0.0,43,0.00,,,-99.99,Weather View 32 v60,2013-08-11 07:49:00,
2013-08-11 03:54:00,71.1,47.4,30.00,East,100,0.0,0.0,43,0.00,,,-99.99,Weather View 32 v60,2013-08-11 07:54:00,
2013-08-11 03:59:00,71.1,47.4,30.00,East,100,0.0,0.0,43,0.00,,,-99.99,Weather View 32 v60,2013-08-11 07:59:00,
2013-08-11 04:09:00,71.1,47.4,30.00,East,100,0.0,0.0,43,0.00,,,-99.99,Weather View 32 v60,2013-08-11 08:09:00,
2013-08-11 04:19:00,71.1,48.0,30.00,East,100,0.0,0.0,44,0.00,,,-99.99,Weather View 32 v60,2013-08-11 08:19:00,
2013-08-11 04:24:00,71.2,48.1,30.00,East,100,0.0,0.0,44,0.00,,,-99.99,Weather View 32 v60,2013-08-11 08:24:00,
2013-08-11 04:34:00,71.1,48.0,30.03,East,100,0.0,0.0,44,0.00,,,-99.99,Weather View 32 v60,2013-08-11 08:34:00,
2013-08-11 04:49:00,71.1,48.0,30.03,East,100,0.0,0.0,44,0.00,,,-99.99,Weather View 32 v60,2013-08-11 08:49:00,
2013-08-11 04:54:00,71.1,48.0,30.03,East,100,0.0,0.0,44,0.00,,,-99.99,Weather View 32 v60,2013-08-11 08:54:00,
2013-08-11 05:09:00,71.1,48.0,30.03,East,100,0.0,0.0,44,0.00,,,-99.99,Weather View 32 v60,2013-08-11 09:09:00,
2013-08-11 05:19:00,71.1,48.0,30.03,East,100,0.0,0.0,44,0.00,,,-99.99,Weather View 32 v60,2013-08-11 09:19:00,
2013-08-11 05:34:00,71.1,48.6,30.03,East,100,0.0,0.0,45,0.00,,,-99.99,Weather View 32 v60,2013-08-11 09:34:00,
2013-08-11 05:39:00,71.1,48.6,30.03,East,100,0.0,0.0,45,0.00,,,-99.99,Weather View 32 v60,2013-08-11 09:39:00,
2013-08-11 05:44:00,70.9,48.4,30.03,East,100,0.0,0.0,45,0.00,,,-99.99,Weather View 32 v60,2013-08-11 09:44:00,
2013-08-11 05:49:00,70.9,48.4,30.03,East,100,0.0,0.0,45,0.00,,,-99.99,Weather View 32 v60,2013-08-11 09:49:00,
2013-08-11 05:57:00,70.9,48.4,30.03,East,100,0.0,0.0,45,0.00,,,-99.99,Weather View 32 v60,2013-08-11 09:57:00,
2013-08-11 06:09:00,70.5,48.1,30.03,East,100,0.0,0.0,45,0.00,,,-99.99,Weather View 32 v60,2013-08-11 10:09:00,
2013-08-11 06:29:00,70.5,48.1,30.03,East,100,0.0,0.0,45,0.00,,,-99.99,Weather View 32 v60,2013-08-11 10:29:00,
2013-08-11 06:39:00,70.3,48.5,30.03,East,100,0.0,0.0,46,0.00,,,-99.99,Weather View 32 v60,2013-08-11 10:39:00,
2013-08-11 06:49:00,70.3,48.5,30.03,East,100,0.0,0.0,46,0.00,,,-99.99,Weather View 32 v60,2013-08-11 10:49:00,
2013-08-11 06:54:00,70.2,48.4,30.03,East,100,0.0,0.0,46,0.00,,,-99.99,Weather View 32 v60,2013-08-11 10:54:00,
2013-08-11 06:59:00,70.2,48.4,30.03,East,100,0.0,0.0,46,0.00,,,-99.99,Weather View 32 v60,2013-08-11 10:59:00,
2013-08-11 07:04:00,70.2,48.4,30.03,East,100,0.0,0.0,46,0.00,,,-99.99,Weather View 32 v60,2013-08-11 11:04:00,
2013-08-11 07:14:00,70.2,48.4,30.03,East,100,0.0,0.0,46,0.00,,,-99.99,Weather View 32 v60,2013-08-11 11:14:00,
2013-08-11 07:24:00,70.3,48.5,30.03,East,100,0.0,0.0,46,0.00,,,-99.99,Weather View 32 v60,2013-08-11 11:24:00,
2013-08-11 07:34:00,70.5,49.3,30.03,East,100,0.0,0.0,47,0.00,,,-99.99,Weather View 32 v60,2013-08-11 11:34:00,
2013-08-11 07:39:00,70.7,49.4,30.03,East,100,0.0,0.0,47,0.00,,,-99.99,Weather View 32 v60,2013-08-11 11:39:00,
2013-08-11 07:49:00,70.5,48.7,30.03,East,100,0.0,0.0,46,0.00,,,-99.99,Weather View 32 v60,2013-08-11 11:49:00,
2013-08-11 07:54:00,70.7,49.4,30.03,East,100,0.0,0.0,47,0.00,,,-99.99,Weather View 32 v60,2013-08-11 11:54:00,
2013-08-11 08:04:00,70.7,49.4,30.03,East,100,0.0,0.0,47,0.00,,,-99.99,Weather View 32 v60,2013-08-11 12:04:00,
2013-08-11 08:09:00,70.7,48.8,30.03,East,100,0.0,0.0,46,0.00,,,-99.99,Weather View 32 v60,2013-08-11 12:09:00,
2013-08-11 08:24:00,71.1,49.8,30.03,East,100,0.0,0.0,47,0.00,,,-99.99,Weather View 32 v60,2013-08-11 12:24:00,
2013-08-11 08:29:00,71.1,49.8,30.03,East,100,0.0,0.0,47,0.00,,,-99.99,Weather View 32 v60,2013-08-11 12:29:00,
2013-08-11 08:44:00,71.6,50.2,30.03,East,100,0.0,0.0,47,0.00,,,-99.99,Weather View 32 v60,2013-08-11 12:44:00,
2013-08-11 08:59:00,72.1,51.3,30.03,East,100,0.0,0.0,48,0.00,,,-99.99,Weather View 32 v60,2013-08-11 12:59:00,
2013-08-11 09:09:00,72.5,51.6,30.03,East,100,0.0,0.0,48,0.00,,,-99.99,Weather View 32 v60,2013-08-11 13:09:00,
2013-08-11 09:19:00,73.0,52.1,30.06,East,100,0.0,0.0,48,0.00,,,-99.99,Weather View 32 v60,2013-08-11 13:19:00,
2013-08-11 09:24:00,73.2,52.3,30.06,East,100,0.0,0.0,48,0.00,,,-99.99,Weather View 32 v60,2013-08-11 13:24:00,
2013-08-11 09:34:00,73.6,52.6,30.06,East,100,0.0,0.0,48,0.00,,,-99.99,Weather View 32 v60,2013-08-11 13:34:00,
2013-08-11 09:44:00,74.3,53.3,30.06,East,100,0.0,0.0,48,0.00,,,-99.99,Weather View 32 v60,2013-08-11 13:44:00,
2013-08-11 09:59:00,75.0,53.9,30.06,East,100,0.0,0.0,48,0.00,,,-99.99,Weather View 32 v60,2013-08-11 13:59:00,
2013-08-11 10:04:00,75.0,53.4,30.06,East,100,0.0,0.0,47,0.00,,,-99.99,Weather View 32 v60,2013-08-11 14:04:00,
2013-08-11 10:09:00,75.2,53.5,30.06,East,100,0.0,0.0,47,0.00,,,-99.99,Weather View 32 v60,2013-08-11 14:09:00,
2013-08-11 10:14:00,75.4,53.7,30.06,East,100,0.0,0.0,47,0.00,,,-99.99,Weather View 32 v60,2013-08-11 14:14:00,
2013-08-11 10:29:00,76.3,54.5,30.06,East,100,0.0,0.0,47,0.00,,,-99.99,Weather View 32 v60,2013-08-11 14:29:00,
2013-08-11 10:39:00,77.4,55.5,30.06,ESE,108,0.0,0.0,47,0.00,,,-99.99,Weather View 32 v60,2013-08-11 14:39:00,
2013-08-11 10:44:00,77.7,55.8,30.06,ESE,108,0.0,0.0,47,0.00,,,-99.99,Weather View 32 v60,2013-08-11 14:44:00,
2013-08-11 10:54:00,78.6,56.0,30.06,ESE,108,0.0,0.0,46,0.00,,,-99.99,Weather View 32 v60,2013-08-11 14:54:00,
2013-08-11 11:01:00,79.2,56.5,30.03,ESE,118,0.0,0.0,46,0.00,,,-99.99,Weather View 32 v60,2013-08-11 15:01:00,
2013-08-11 11:09:00,80.1,56.7,30.03,ESE,118,0.0,0.0,45,0.00,,,-99.99,Weather View 32 v60,2013-08-11 15:09:00,
2013-08-11 11:19:00,81.0,56.9,30.03,WNW,293,0.0,0.0,44,0.00,,,-99.99,Weather View 32 v60,2013-08-11 15:19:00,
2013-08-11 11:24:00,81.3,57.2,30.03,West,276,0.0,0.0,44,0.00,,,-99.99,Weather View 32 v60,2013-08-11 15:24:00,
2013-08-11 11:29:00,81.7,56.9,30.03,West,269,0.0,0.0,43,0.00,,,-99.99,Weather View 32 v60,2013-08-11 15:29:00,
2013-08-11 11:34:00,82.2,56.8,30.03,West,269,0.0,0.0,42,0.00,,,-99.99,Weather View 32 v60,2013-08-11 15:34:00,
2013-08-11 11:44:00,83.3,56.4,30.03,NW,305,0.0,0.0,40,0.00,,,-99.99,Weather View 32 v60,2013-08-11 15:44:00,
2013-08-11 11:54:00,84.4,56.6,30.03,NW,305,0.0,0.0,39,0.00,,,-99.99,Weather View 32 v60,2013-08-11 15:54:00,
2013-08-11 11:59:00,84.7,55.5,30.03,WNW,297,0.0,0.0,37,0.00,,,-99.99,Weather View 32 v60,2013-08-11 15:59:00,
2013-08-11 12:04:00,85.1,54.3,30.03,SSW,211,0.0,0.0,35,0.00,,,-99.99,Weather View 32 v60,2013-08-11 16:04:00,
2013-08-11 12:09:00,85.5,53.0,30.03,SE,133,0.0,0.0,33,0.00,,,-99.99,Weather View 32 v60,2013-08-11 16:09:00,
2013-08-11 12:14:00,86.0,53.4,30.03,SE,125,0.0,0.0,33,0.00,,,-99.99,Weather View 32 v60,2013-08-11 16:14:00,
2013-08-11 12:24:00,86.7,52.4,30.03,SE,125,0.0,0.0,31,0.00,,,-99.99,Weather View 32 v60,2013-08-11 16:24:00,
2013-08-11 12:29:00,86.9,50.7,30.03,WNW,283,0.0,0.0,29,0.00,,,-99.99,Weather View 32 v60,2013-08-11 16:29:00,
2013-08-11 12:49:00,85.6,47.7,30.03,WNW,283,0.0,0.0,27,0.00,,,-99.99,Weather View 32 v60,2013-08-11 16:49:00,
2013-08-11 12:59:00,87.1,48.9,30.03,WSW,256,0.0,0.0,27,0.00,,,-99.99,Weather View 32 v60,2013-08-11 16:59:00,
2013-08-11 13:04:00,87.6,48.4,30.03,SSE,153,0.0,0.0,26,0.00,,,-99.99,Weather View 32 v60,2013-08-11 17:04:00,
2013-08-11 13:09:00,88.0,47.6,30.03,SSE,153,0.0,0.0,25,0.00,,,-99.99,Weather View 32 v60,2013-08-11 17:09:00,
2013-08-11 13:14:00,88.0,45.4,30.00,East,90,0.0,0.0,23,0.00,,,-99.99,Weather View 32 v60,2013-08-11 17:14:00,
2013-08-11 13:19:00,88.3,45.7,30.00,NE,40,0.0,0.0,23,0.00,,,-99.99,Weather View 32 v60,2013-08-11 17:19:00,
2013-08-11 13:29:00,88.9,42.5,30.00,SSE,152,0.0,0.0,20,0.00,,,-99.99,Weather View 32 v60,2013-08-11 17:29:00,
2013-08-11 13:34:00,89.2,42.8,30.00,South,174,0.0,0.0,20,0.00,,,-99.99,Weather View 32 v60,2013-08-11 17:34:00,
2013-08-11 13:49:00,90.1,40.8,30.00,SE,140,0.0,0.0,18,0.00,,,-99.99,Weather View 32 v60,2013-08-11 17:49:00,
2013-08-11 14:03:00,90.5,41.1,30.00,East,95,0.0,0.0,18,0.00,,,-99.99,Weather View 32 v60,2013-08-11 18:03:00,
2013-08-11 14:09:00,90.0,39.2,30.00,West,272,0.0,0.0,17,0.00,,,-99.99,Weather View 32 v60,2013-08-11 18:09:00,
2013-08-11 14:19:00,89.4,38.7,30.00,WNW,290,0.0,0.0,17,0.00,,,-99.99,Weather View 32 v60,2013-08-11 18:19:00,
2013-08-11 14:29:00,89.4,38.7,30.00,ESE,106,0.0,0.0,17,0.00,,,-99.99,Weather View 32 v60,2013-08-11 18:29:00,
2013-08-11 14:39:00,88.9,38.3,30.00,SSE,158,0.0,0.0,17,0.00,,,-99.99,Weather View 32 v60,2013-08-11 18:39:00,
2013-08-11 14:49:00,87.4,34.0,30.00,South,183,0.0,0.0,15,0.00,,,-99.99,Weather View 32 v60,2013-08-11 18:49:00,
2013-08-11 15:03:00,86.4,34.7,30.00,East,97,0.0,0.0,16,0.00,,,-99.99,Weather View 32 v60,2013-08-11 19:03:00,
2013-08-11 15:09:00,86.0,34.5,29.97,ESE,104,0.0,0.0,16,0.00,,,-99.99,Weather View 32 v60,2013-08-11 19:09:00,
2013-08-11 15:19:00,85.3,33.9,29.97,SW,232,0.0,0.0,16,0.00,,,-99.99,Weather View 32 v60,2013-08-11 19:19:00,
2013-08-11 15:29:00,83.5,32.4,30.00,SE,135,0.0,0.0,16,0.00,,,-99.99,Weather View 32 v60,2013-08-11 19:29:00,
2013-08-11 15:34:00,82.9,32.0,30.00,SSE,165,0.0,0.0,16,0.00,,,-99.99,Weather View 32 v60,2013-08-11 19:34:00,
2013-08-11 15:39:00,82.4,31.6,29.97,South,170,0.0,0.0,16,0.00,,,-99.99,Weather View 32 v60,2013-08-11 19:39:00,
2013-08-11 15:49:00,82.0,31.3,29.97,South,178,0.0,0.0,16,0.00,,,-99.99,Weather View 32 v60,2013-08-11 19:49:00,
2013-08-11 15:59:00,81.5,35.2,29.97,WSW,244,0.0,0.0,19,0.00,,,-99.99,Weather View 32 v60,2013-08-11 19:59:00,
2013-08-11 16:04:00,81.1,34.9,29.97,NNE,20,0.0,0.0,19,0.00,,,-99.99,Weather View 32 v60,2013-08-11 20:04:00,
2013-08-11 16:09:00,80.8,34.6,29.97,South,177,4.0,4.0,19,0.00,,,-99.99,Weather View 32 v60,2013-08-11 20:09:00,
2013-08-11 16:19:00,79.3,34.7,30.00,South,185,4.0,8.0,20,0.00,,,-99.99,Weather View 32 v60,2013-08-11 20:19:00,
2013-08-11 16:34:00,77.9,33.5,30.00,SSE,158,0.0,8.0,20,0.00,,,-99.99,Weather View 32 v60,2013-08-11 20:34:00,
2013-08-11 16:39:00,77.9,33.5,30.00,WSW,254,0.0,8.0,20,0.00,,,-99.99,Weather View 32 v60,2013-08-11 20:39:00,
2013-08-11 16:49:00,78.6,34.1,29.97,South,191,4.0,8.0,20,0.00,,,-99.99,Weather View 32 v60,2013-08-11 20:49:00,
2013-08-11 17:00:00,79.5,36.1,29.97,SSE,157,0.0,8.0,21,0.00,,,-99.99,Weather View 32 v60,2013-08-11 21:00:00,
2013-08-11 17:09:00,79.7,35.0,29.97,West,266,0.0,8.0,20,0.00,,,-99.99,Weather View 32 v60,2013-08-11 21:09:00,
2013-08-11 17:19:00,80.1,35.3,29.97,East,87,0.0,7.0,20,0.00,,,-99.99,Weather View 32 v60,2013-08-11 21:19:00,
2013-08-11 17:29:00,79.5,34.8,29.97,SE,140,0.0,4.0,20,0.00,,,-99.99,Weather View 32 v60,2013-08-11 21:29:00,
2013-08-11 17:34:00,79.0,34.4,29.97,SE,140,0.0,4.0,20,0.00,,,-99.99,Weather View 32 v60,2013-08-11 21:34:00,
2013-08-11 17:44:00,78.4,33.9,29.97,SE,140,0.0,4.0,20,0.00,,,-99.99,Weather View 32 v60,2013-08-11 21:44:00,
2013-08-11 17:54:00,77.9,34.7,29.97,SE,140,0.0,4.0,21,0.00,,,-99.99,Weather View 32 v60,2013-08-11 21:54:00,
2013-08-11 17:59:00,77.9,34.7,30.00,SE,140,0.0,4.0,21,0.00,,,-99.99,Weather View 32 v60,2013-08-11 21:59:00,
2013-08-11 18:14:00,77.9,34.7,30.00,SE,140,0.0,4.0,21,0.00,,,-99.99,Weather View 32 v60,2013-08-11 22:14:00,
2013-08-11 18:24:00,77.9,34.7,30.00,SE,140,0.0,3.0,21,0.00,,,-99.99,Weather View 32 v60,2013-08-11 22:24:00,
2013-08-11 18:29:00,78.1,36.0,30.00,SE,140,0.0,0.0,22,0.00,,,-99.99,Weather View 32 v60,2013-08-11 22:29:00,
2013-08-11 18:39:00,78.1,36.0,30.00,SE,140,0.0,0.0,22,0.00,,,-99.99,Weather View 32 v60,2013-08-11 22:39:00,
2013-08-11 18:49:00,78.1,36.0,29.97,SE,140,0.0,0.0,22,0.00,,,-99.99,Weather View 32 v60,2013-08-11 22:49:00,
2013-08-11 18:54:00,78.1,36.0,29.97,SE,140,0.0,0.0,22,0.00,,,-99.99,Weather View 32 v60,2013-08-11 22:54:00,
2013-08-11 19:04:00,77.9,35.9,29.97,SE,140,0.0,0.0,22,0.00,,,-99.99,Weather View 32 v60,2013-08-11 23:04:00,
2013-08-11 19:19:00,77.9,37.0,29.97,SE,140,0.0,0.0,23,0.00,,,-99.99,Weather View 32 v60,2013-08-11 23:19:00,
2013-08-11 19:29:00,77.7,38.0,29.97,SSE,156,0.0,4.0,24,0.00,,,-99.99,Weather View 32 v60,2013-08-11 23:29:00,
2013-08-11 19:39:00,77.4,37.6,29.97,SSE,156,0.0,4.0,24,0.00,,,-99.99,Weather View 32 v60,2013-08-11 23:39:00,
2013-08-11 19:44:00,77.2,38.5,29.97,SSE,156,0.0,4.0,25,0.00,,,-99.99,Weather View 32 v60,2013-08-11 23:44:00,
2013-08-11 19:54:00,76.6,38.1,29.97,SSE,156,0.0,4.0,25,0.00,,,-99.99,Weather View 32 v60,2013-08-11 23:54:00,
2013-08-11 19:59:00,76.5,38.9,30.00,SSE,156,0.0,4.0,26,0.00,,,-99.99,Weather View 32 v60,2013-08-11 23:59:00,
2013-08-11 20:04:00,76.3,38.8,30.00,SSE,156,0.0,4.0,26,0.00,,,-99.99,Weather View 32 v60,2013-08-12 00:04:00,
2013-08-11 20:14:00,76.3,39.8,30.00,SSE,156,0.0,4.0,27,0.00,,,-99.99,Weather View 32 v60,2013-08-12 00:14:00,
2013-08-11 20:19:00,76.1,40.5,30.00,SSE,156,0.0,4.0,28,0.00,,,-99.99,Weather View 32 v60,2013-08-12 00:19:00,
2013-08-11 20:24:00,75.9,41.3,30.00,SSE,156,0.0,4.0,29,0.00,,,-99.99,Weather View 32 v60,2013-08-12 00:24:00,
2013-08-11 20:34:00,75.7,41.1,30.00,SSE,156,0.0,3.0,29,0.00,,,-99.99,Weather View 32 v60,2013-08-12 00:34:00,
2013-08-11 20:44:00,75.4,41.7,29.97,SSE,156,0.0,3.0,30,0.00,,,-99.99,Weather View 32 v60,2013-08-12 00:44:00,
2013-08-11 20:54:00,75.4,42.6,29.97,SSE,156,0.0,3.0,31,0.00,,,-99.99,Weather View 32 v60,2013-08-12 00:54:00,
2013-08-11 20:59:00,75.2,42.4,29.97,SSE,156,0.0,3.0,31,0.00,,,-99.99,Weather View 32 v60,2013-08-12 00:59:00,
2013-08-11 21:04:00,75.2,42.4,29.97,SSE,156,0.0,3.0,31,0.00,,,-99.99,Weather View 32 v60,2013-08-12 01:04:00,
2013-08-11 21:14:00,75.2,42.4,29.97,SSE,156,0.0,0.0,31,0.00,,,-99.99,Weather View 32 v60,2013-08-12 01:14:00,
2013-08-11 21:21:00,75.4,42.6,29.97,SSE,156,0.0,0.0,31,0.00,,,-99.99,Weather View 32 v60,2013-08-12 01:21:00,
2013-08-11 21:29:00,75.4,43.4,29.97,WNW,300,0.0,3.0,32,0.00,,,-99.99,Weather View 32 v60,2013-08-12 01:29:00,
2013-08-11 21:44:00,75.2,43.2,29.97,NNE,22,0.0,3.0,32,0.00,,,-99.99,Weather View 32 v60,2013-08-12 01:44:00,
2013-08-11 21:49:00,75.2,43.2,29.97,NNE,22,0.0,3.0,32,0.00,,,-99.99,Weather View 32 v60,2013-08-12 01:49:00,
2013-08-11 21:54:00,75.0,43.9,29.97,NNE,22,0.0,3.0,33,0.00,,,-99.99,Weather View 32 v60,2013-08-12 01:54:00,
2013-08-11 21:59:00,75.0,43.9,30.00,NNE,22,0.0,3.0,33,0.00,,,-99.99,Weather View 32 v60,2013-08-12 01:59:00,
2013-08-11 22:09:00,74.8,43.7,30.00,NNE,22,0.0,3.0,33,0.00,,,-99.99,Weather View 32 v60,2013-08-12 02:09:00,
2013-08-11 22:19:00,74.7,43.6,30.00,NNE,22,0.0,3.0,33,0.00,,,-99.99,Weather View 32 v60,2013-08-12 02:19:00,
2013-08-11 22:29:00,74.7,44.4,30.00,NNE,22,0.0,3.0,34,0.00,,,-99.99,Weather View 32 v60,2013-08-12 02:29:00,
2013-08-11 22:34:00,74.7,44.4,30.00,NNE,22,0.0,0.0,34,0.00,,,-99.99,Weather View 32 v60,2013-08-12 02:34:00,
2013-08-11 22:44:00,74.5,44.2,30.03,NNE,22,0.0,0.0,34,0.00,,,-99.99,Weather View 32 v60,2013-08-12 02:44:00,
2013-08-11 22:59:00,74.5,45.0,30.03,NNE,22,3.0,3.0,35,0.00,,,-99.99,Weather View 32 v60,2013-08-12 02:59:00,
2013-08-11 23:04:00,74.7,45.1,30.03,NNE,22,0.0,3.0,35,0.00,,,-99.99,Weather View 32 v60,2013-08-12 03:04:00,
2013-08-11 23:14:00,75.0,46.2,30.00,WSW,255,3.0,4.0,36,0.00,,,-99.99,Weather View 32 v60,2013-08-12 03:14:00,
2013-08-11 23:22:00,75.0,46.2,30.00,WNW,283,5.0,5.0,36,0.00,,,-99.99,Weather View 32 v60,2013-08-12 03:22:00,
2013-08-11 23:29:00,75.4,47.2,30.00,WNW,296,4.0,5.0,37,0.00,,,-99.99,Weather View 32 v60,2013-08-12 03:29:00,
2013-08-11 23:39:00,75.4,47.2,30.00,West,277,5.0,6.0,37,0.00,,,-99.99,Weather View 32 v60,2013-08-12 03:39:00,
2013-08-11 23:44:00,75.6,47.4,30.00,WNW,287,4.0,6.0,37,0.00,,,-99.99,Weather View 32 v60,2013-08-12 03:44:00,
2013-08-11 23:54:00,75.6,47.4,30.00,West,278,4.0,6.0,37,0.00,,,-99.99,Weather View 32 v60,2013-08-12 03:54:00,